createdAt,value
2023-03-16T00:00:36.149Z,2.30
2023-03-16T00:03:04.974Z,2.40
2023-03-16T00:05:33.583Z,2.53
2023-03-16T00:08:03.667Z,2.70
2023-03-16T00:10:32.426Z,2.25
2023-03-16T00:13:02.682Z,2.33
2023-03-16T00:15:31.296Z,2.38
2023-03-16T00:17:59.867Z,2.42
2023-03-16T00:20:28.790Z,2.38
2023-03-16T00:22:57.577Z,2.38
2023-03-16T00:25:27.570Z,2.28
2023-03-16T00:27:56.159Z,2.58
2023-03-16T00:30:24.899Z,2.50
2023-03-16T00:32:53.990Z,2.60
2023-03-16T00:35:22.613Z,2.65
2023-03-16T00:37:51.261Z,2.88
2023-03-16T00:40:19.903Z,2.33
2023-03-16T00:42:49.789Z,2.60
2023-03-16T00:45:18.590Z,2.38
2023-03-16T00:47:47.162Z,2.83
2023-03-16T00:50:16.076Z,2.53
2023-03-16T00:52:44.659Z,2.97
2023-03-16T00:55:13.703Z,2.85
2023-03-16T00:57:42.255Z,3.13
2023-03-16T01:00:17.051Z,2.85
2023-03-16T01:02:46.675Z,2.45
2023-03-16T01:05:15.933Z,2.97
2023-03-16T01:07:45.299Z,2.92
2023-03-16T01:10:14.585Z,2.85
2023-03-16T01:12:45.551Z,3.03
2023-03-16T01:15:15.610Z,2.83
2023-03-16T01:17:44.202Z,2.80
2023-03-16T01:20:19.312Z,3.13
2023-03-16T01:22:47.942Z,2.75
2023-03-16T01:25:16.631Z,3.03
2023-03-16T01:27:45.549Z,2.90
2023-03-16T01:30:15.815Z,3.30
2023-03-16T01:32:44.694Z,3.15
2023-03-16T01:35:15.024Z,2.85
2023-03-16T01:37:43.664Z,2.75
2023-03-16T01:40:22.985Z,2.90
2023-03-16T01:43:02.496Z,2.90
2023-03-16T01:46:18.110Z,2.97
2023-03-16T01:49:02.324Z,3.47
2023-03-16T01:51:37.524Z,3.13
2023-03-16T01:54:10.853Z,3.50
2023-03-16T01:56:42.997Z,3.05
2023-03-16T01:59:15.480Z,2.85
2023-03-16T02:01:47.019Z,3.20
2023-03-16T02:04:28.208Z,3.30
2023-03-16T02:07:01.749Z,2.88
2023-03-16T02:09:34.019Z,3.25
2023-03-16T02:12:02.863Z,3.10
2023-03-16T02:14:33.106Z,3.38
2023-03-16T02:17:03.283Z,3.35
2023-03-16T02:19:43.332Z,3.00
2023-03-16T02:22:13.945Z,3.65
2023-03-16T02:24:43.426Z,3.60
2023-03-16T02:27:14.847Z,3.30
2023-03-16T02:30:08.945Z,3.10
2023-03-16T02:32:47.979Z,2.92
2023-03-16T02:35:18.124Z,3.13
2023-03-16T02:37:46.816Z,3.45
2023-03-16T02:40:22.245Z,3.35
2023-03-16T02:43:02.859Z,3.10
2023-03-16T02:45:40.684Z,3.20
2023-03-16T02:48:15.644Z,3.20
2023-03-16T02:50:48.094Z,3.20
2023-03-16T02:53:17.703Z,3.72
2023-03-16T02:55:46.479Z,3.25
2023-03-16T02:58:15.812Z,3.10
2023-03-16T03:00:46.368Z,2.90
2023-03-16T03:03:18.364Z,2.97
2023-03-16T03:05:47.285Z,3.05
2023-03-16T03:08:16.403Z,2.80
2023-03-16T03:10:45.376Z,2.80
2023-03-16T03:13:14.069Z,3.05
2023-03-16T03:15:42.674Z,2.50
2023-03-16T03:18:14.555Z,2.70
2023-03-16T03:20:43.710Z,3.30
2023-03-16T03:23:12.406Z,3.08
2023-03-16T03:25:43.490Z,2.80
2023-03-16T03:28:12.418Z,3.22
2023-03-16T03:30:41.640Z,3.00
2023-03-16T03:33:10.463Z,3.17
2023-03-16T03:35:42.062Z,3.33
2023-03-16T03:38:11.580Z,3.22
2023-03-16T03:40:40.586Z,2.83
2023-03-16T03:43:09.126Z,3.47
2023-03-16T03:45:41.915Z,3.00
2023-03-16T03:48:10.862Z,3.30
2023-03-16T03:50:40.904Z,3.00
2023-03-16T03:53:24.747Z,3.60
2023-03-16T03:56:13.051Z,3.50
2023-03-16T03:58:41.601Z,3.92
2023-03-16T04:01:11.006Z,3.60
2023-03-16T04:03:41.967Z,3.55
2023-03-16T04:06:12.809Z,3.75
2023-03-16T04:08:41.587Z,4.32
2023-03-16T04:11:13.058Z,3.90
2023-03-16T04:13:41.974Z,3.47
2023-03-16T04:16:16.151Z,3.90
2023-03-16T04:18:46.298Z,4.05
2023-03-16T04:21:18.501Z,4.13
2023-03-16T04:23:49.172Z,3.70
2023-03-16T04:26:18.336Z,4.20
2023-03-16T04:28:49.563Z,4.20
2023-03-16T04:31:20.794Z,4.05
2023-03-16T04:33:49.942Z,3.97
2023-03-16T04:36:20.053Z,3.88
2023-03-16T04:38:49.349Z,3.92
2023-03-16T04:41:18.651Z,4.38
2023-03-16T04:43:57.639Z,4.50
2023-03-16T04:46:27.563Z,4.40
2023-03-16T04:48:58.326Z,4.50
2023-03-16T04:51:30.048Z,4.38
2023-03-16T04:54:08.632Z,4.72
2023-03-16T04:56:41.525Z,4.78
2023-03-16T04:59:18.477Z,4.50
2023-03-16T05:01:53.690Z,4.95
2023-03-16T05:04:24.518Z,4.85
2023-03-16T05:06:54.717Z,4.60
2023-03-16T05:09:28.383Z,4.97
2023-03-16T05:12:16.412Z,4.90
2023-03-16T05:14:46.763Z,5.15
2023-03-16T05:17:23.149Z,4.90
2023-03-16T05:19:52.313Z,5.53
2023-03-16T05:22:23.873Z,5.20
2023-03-16T05:25:14.809Z,5.20
2023-03-16T05:27:45.471Z,4.80
2023-03-16T05:30:19.950Z,5.35
2023-03-16T05:32:49.011Z,4.70
2023-03-16T05:35:18.700Z,4.60
2023-03-16T05:37:49.086Z,4.80
2023-03-16T05:40:22.965Z,5.28
2023-03-16T05:43:05.011Z,5.32
2023-03-16T05:45:37.325Z,5.25
2023-03-16T05:48:11.369Z,5.20
2023-03-16T05:50:45.721Z,4.82
2023-03-16T05:53:17.945Z,5.32
2023-03-16T05:55:46.806Z,4.63
2023-03-16T05:58:17.598Z,4.70
2023-03-16T06:00:46.384Z,5.00
2023-03-16T06:03:26.483Z,4.38
2023-03-16T06:05:56.197Z,5.00
2023-03-16T06:08:40.264Z,4.82
2023-03-16T06:11:11.877Z,4.97
2023-03-16T06:13:44.409Z,4.78
2023-03-16T06:16:14.692Z,5.50
2023-03-16T06:18:43.413Z,5.47
2023-03-16T06:21:12.661Z,5.10
2023-03-16T06:23:46.638Z,4.63
2023-03-16T06:26:16.417Z,5.15
2023-03-16T06:28:48.995Z,4.90
2023-03-16T06:31:18.071Z,4.90
2023-03-16T06:33:48.407Z,5.28
2023-03-16T06:36:17.338Z,5.10
2023-03-16T06:38:51.669Z,4.82
2023-03-16T06:41:42.625Z,4.93
2023-03-16T06:44:12.148Z,5.22
2023-03-16T06:46:48.745Z,5.35
2023-03-16T06:49:17.944Z,5.20
2023-03-16T06:51:46.478Z,5.35
2023-03-16T06:54:16.721Z,5.03
2023-03-16T06:56:46.394Z,4.68
2023-03-16T06:59:15.151Z,5.25
2023-03-16T07:01:44.935Z,4.80
2023-03-16T07:04:13.839Z,5.32
2023-03-16T07:06:43.364Z,5.35
2023-03-16T07:09:12.639Z,5.00
2023-03-16T07:11:42.684Z,5.45
2023-03-16T07:14:11.869Z,5.55
2023-03-16T07:16:40.945Z,5.20
2023-03-16T07:19:11.591Z,5.00
2023-03-16T07:21:40.891Z,5.25
2023-03-16T07:24:17.240Z,5.03
2023-03-16T07:26:48.491Z,4.72
2023-03-16T07:29:25.847Z,4.65
2023-03-16T07:31:54.641Z,4.72
2023-03-16T07:34:28.300Z,5.10
2023-03-16T07:36:59.721Z,5.25
2023-03-16T07:39:31.660Z,4.60
2023-03-16T07:42:09.022Z,4.65
2023-03-16T07:44:56.318Z,4.80
2023-03-16T07:47:26.582Z,5.20
2023-03-16T07:49:58.924Z,4.18
2023-03-16T07:52:28.270Z,4.20
2023-03-16T07:54:56.913Z,4.72
2023-03-16T07:57:27.319Z,4.90
2023-03-16T07:59:56.439Z,5.10
2023-03-16T08:02:25.286Z,4.35
2023-03-16T08:04:55.856Z,4.30
2023-03-16T08:07:25.555Z,4.65
2023-03-16T08:10:06.601Z,4.80
2023-03-16T08:12:44.438Z,4.35
2023-03-16T08:15:13.370Z,4.38
2023-03-16T08:17:42.629Z,4.50
2023-03-16T08:20:15.850Z,4.65
2023-03-16T08:22:46.400Z,4.95
2023-03-16T08:25:19.761Z,4.82
2023-03-16T08:27:58.180Z,4.97
2023-03-16T08:30:27.506Z,4.28
2023-03-16T08:33:13.690Z,5.35
2023-03-16T08:35:44.997Z,4.70
2023-03-16T08:38:14.577Z,4.82
2023-03-16T08:40:47.563Z,4.97
2023-03-16T08:43:20.020Z,4.63
2023-03-16T08:45:50.779Z,4.28
2023-03-16T08:48:22.174Z,4.53
2023-03-16T08:50:54.042Z,4.80
2023-03-16T08:53:24.071Z,4.57
2023-03-16T08:55:52.631Z,4.47
2023-03-16T08:58:22.593Z,4.63
2023-03-16T09:00:52.066Z,4.65
2023-03-16T09:03:20.813Z,4.53
2023-03-16T09:05:49.417Z,4.85
2023-03-16T09:08:18.402Z,5.22
2023-03-16T09:10:47.505Z,4.47
2023-03-16T09:13:16.294Z,4.78
2023-03-16T09:15:46.658Z,4.72
2023-03-16T09:18:16.204Z,4.43
2023-03-16T09:20:47.096Z,4.82
2023-03-16T09:23:15.966Z,4.32
2023-03-16T09:25:45.238Z,4.95
2023-03-16T09:28:13.728Z,4.50
2023-03-16T09:30:42.339Z,3.83
2023-03-16T09:33:12.269Z,4.68
2023-03-16T09:35:40.948Z,4.50
2023-03-16T09:38:09.419Z,4.30
2023-03-16T09:40:39.531Z,4.47
2023-03-16T09:43:29.493Z,4.22
2023-03-16T09:46:06.603Z,4.05
2023-03-16T09:48:39.783Z,4.13
2023-03-16T09:51:14.311Z,4.18
2023-03-16T09:53:43.972Z,4.22
2023-03-16T09:56:19.346Z,4.45
2023-03-16T09:58:47.916Z,4.32
2023-03-16T10:01:26.334Z,3.78
2023-03-16T10:04:13.493Z,4.13
2023-03-16T10:06:49.543Z,4.25
2023-03-16T10:09:27.059Z,4.28
2023-03-16T10:11:58.056Z,4.72
2023-03-16T10:14:31.674Z,4.38
2023-03-16T10:17:04.720Z,4.43
2023-03-16T10:19:40.586Z,4.07
2023-03-16T10:22:19.800Z,4.45
2023-03-16T10:25:00.363Z,4.32
2023-03-16T10:27:32.318Z,4.95
2023-03-16T10:30:07.228Z,5.03
2023-03-16T10:32:36.821Z,5.10
2023-03-16T10:35:15.967Z,4.78
2023-03-16T10:37:46.579Z,4.88
2023-03-16T10:40:15.972Z,4.60
2023-03-16T10:42:46.762Z,4.88
2023-03-16T10:45:27.571Z,5.13
2023-03-16T10:48:07.753Z,5.00
2023-03-16T10:50:37.792Z,4.82
2023-03-16T10:53:16.526Z,5.53
2023-03-16T10:55:45.809Z,5.13
2023-03-16T10:58:25.193Z,4.60
2023-03-16T11:00:55.119Z,5.05
2023-03-16T11:03:27.571Z,4.80
2023-03-16T11:06:02.919Z,4.68
2023-03-16T11:08:35.147Z,4.20
2023-03-16T11:11:11.803Z,4.65
2023-03-16T11:13:45.867Z,4.72
2023-03-16T11:16:26.269Z,4.43
2023-03-16T11:18:57.997Z,4.03
2023-03-16T11:21:41.136Z,3.75
2023-03-16T11:24:19.524Z,3.75
2023-03-16T11:26:55.613Z,3.85
2023-03-16T11:29:29.875Z,3.70
2023-03-16T11:32:02.388Z,3.40
2023-03-16T11:34:33.238Z,3.38
2023-03-16T11:37:13.487Z,3.35
2023-03-16T11:39:52.732Z,3.10
2023-03-16T11:42:33.125Z,3.20
2023-03-16T11:45:09.955Z,3.20
2023-03-16T11:47:54.782Z,3.03
2023-03-16T11:50:28.911Z,3.35
2023-03-16T11:53:08.386Z,3.15
2023-03-16T11:55:43.210Z,3.00
2023-03-16T11:58:28.279Z,3.30
2023-03-16T12:01:08.725Z,3.20
2023-03-16T12:03:50.243Z,3.13
2023-03-16T12:06:27.561Z,3.05
2023-03-16T12:09:21.111Z,3.13
2023-03-16T12:11:55.045Z,2.58
2023-03-16T12:14:28.290Z,3.25
2023-03-16T12:17:02.853Z,3.22
2023-03-16T12:19:41.097Z,2.90
2023-03-16T12:22:18.189Z,3.05
2023-03-16T12:24:48.664Z,2.47
2023-03-16T12:27:19.971Z,2.55
2023-03-16T12:29:59.505Z,2.78
2023-03-16T12:32:42.164Z,2.60
2023-03-16T12:35:22.803Z,2.63
2023-03-16T12:38:03.159Z,2.60
2023-03-16T12:40:40.553Z,2.65
2023-03-16T12:43:29.566Z,2.70
2023-03-16T12:46:07.057Z,2.78
2023-03-16T12:48:39.857Z,2.65
2023-03-16T12:51:08.480Z,2.30
2023-03-16T12:53:46.891Z,2.70
2023-03-16T12:56:19.468Z,2.67
2023-03-16T12:58:49.619Z,2.53
2023-03-16T13:01:20.877Z,2.28
2023-03-16T13:03:51.777Z,2.40
2023-03-16T13:06:23.756Z,2.42
2023-03-16T13:08:56.785Z,2.40
2023-03-16T13:11:27.495Z,2.22
2023-03-16T13:14:10.830Z,2.17
2023-03-16T13:16:40.839Z,2.38
2023-03-16T13:19:27.158Z,2.20
2023-03-16T13:22:08.324Z,2.20
2023-03-16T13:24:52.846Z,2.05
2023-03-16T13:27:27.387Z,2.22
2023-03-16T13:29:58.389Z,2.13
2023-03-16T13:32:31.259Z,2.05
2023-03-16T13:35:01.182Z,2.03
2023-03-16T13:37:31.113Z,1.88
2023-03-16T13:40:01.786Z,2.00
2023-03-16T13:42:33.219Z,2.28
2023-03-16T13:45:14.308Z,2.20
2023-03-16T13:47:45.403Z,2.28
2023-03-16T13:50:15.935Z,2.17
2023-03-16T13:52:58.803Z,2.15
2023-03-16T13:55:32.463Z,2.25
2023-03-16T13:58:03.893Z,1.92
2023-03-16T14:00:35.191Z,2.50
2023-03-16T14:03:10.139Z,1.80
2023-03-16T14:05:40.819Z,2.78
2023-03-16T14:08:17.480Z,2.00
2023-03-16T14:10:46.898Z,2.47
2023-03-16T14:13:33.453Z,2.10
2023-03-16T14:16:04.506Z,1.92
2023-03-16T14:18:37.289Z,1.90
2023-03-16T14:21:09.296Z,2.30
2023-03-16T14:23:41.882Z,2.60
2023-03-16T14:26:13.718Z,2.40
2023-03-16T14:28:55.653Z,2.20
2023-03-16T14:31:33.540Z,2.40
2023-03-16T14:34:03.851Z,2.20
2023-03-16T14:36:36.830Z,2.30
2023-03-16T14:39:12.916Z,2.53
2023-03-16T14:41:42.371Z,2.30
2023-03-16T14:44:21.148Z,2.15
2023-03-16T14:46:50.623Z,2.20
2023-03-16T14:49:23.615Z,2.40
2023-03-16T14:51:54.532Z,2.55
2023-03-16T14:54:23.887Z,2.33
2023-03-16T14:56:54.253Z,2.40
2023-03-16T14:59:24.213Z,2.88
2023-03-16T15:01:54.657Z,2.47
2023-03-16T15:04:28.896Z,2.90
2023-03-16T15:06:58.257Z,2.50
2023-03-16T15:09:36.051Z,3.58
2023-03-16T15:12:05.460Z,2.75
2023-03-16T15:14:52.869Z,2.85
2023-03-16T15:17:21.427Z,2.55
2023-03-16T15:19:50.429Z,2.63
2023-03-16T15:22:26.228Z,2.63
2023-03-16T15:24:55.368Z,2.75
2023-03-16T15:27:26.956Z,2.60
2023-03-16T15:29:57.510Z,2.55
2023-03-16T15:32:26.480Z,2.90
2023-03-16T15:34:55.025Z,2.90
2023-03-16T15:37:27.428Z,3.00
2023-03-16T15:39:56.037Z,3.05
2023-03-16T15:42:25.947Z,2.67
2023-03-16T15:44:55.979Z,2.92
2023-03-16T15:47:24.644Z,3.10
2023-03-16T15:49:53.319Z,3.22
2023-03-16T15:52:31.705Z,2.97
2023-03-16T15:55:04.409Z,2.95
2023-03-16T15:57:33.500Z,3.03
2023-03-16T16:00:04.001Z,2.97
2023-03-16T16:02:33.977Z,3.30
2023-03-16T16:05:02.575Z,3.03
2023-03-16T16:07:31.440Z,2.95
2023-03-16T16:10:01.405Z,2.58
2023-03-16T16:12:32.432Z,3.33
2023-03-16T16:15:01.656Z,3.00
2023-03-16T16:17:47.930Z,3.08
2023-03-16T16:20:24.259Z,3.40
2023-03-16T16:22:52.982Z,2.97
2023-03-16T16:25:23.933Z,3.05
2023-03-16T16:27:53.008Z,3.42
2023-03-16T16:30:27.165Z,3.08
2023-03-16T16:32:58.678Z,3.35
2023-03-16T16:35:29.342Z,3.15
2023-03-16T16:37:58.049Z,3.03
2023-03-16T16:40:37.286Z,3.65
2023-03-16T16:43:07.653Z,3.50
2023-03-16T16:45:36.850Z,3.17
2023-03-16T16:48:32.821Z,3.65
2023-03-16T16:51:02.269Z,3.42
2023-03-16T16:53:31.399Z,3.53
2023-03-16T16:56:00.239Z,3.47
2023-03-16T16:58:28.813Z,3.28
2023-03-16T17:00:58.912Z,3.10
2023-03-16T17:03:30.543Z,3.58
2023-03-16T17:05:59.923Z,3.58
2023-03-16T17:08:28.602Z,3.63
2023-03-16T17:10:57.225Z,3.67
2023-03-16T17:13:29.646Z,3.20
2023-03-16T17:15:58.722Z,3.08
2023-03-16T17:18:28.631Z,3.40
2023-03-16T17:20:57.972Z,3.25
2023-03-16T17:23:32.713Z,3.10
2023-03-16T17:26:04.738Z,3.13
2023-03-16T17:28:38.653Z,3.15
2023-03-16T17:31:07.688Z,3.30
2023-03-16T17:33:38.384Z,3.80
2023-03-16T17:36:07.612Z,3.58
2023-03-16T17:38:36.195Z,3.25
2023-03-16T17:41:04.907Z,3.30
2023-03-16T17:43:33.556Z,3.25
2023-03-16T17:46:05.072Z,3.28
2023-03-16T17:48:33.622Z,3.30
2023-03-16T17:51:03.716Z,3.55
2023-03-16T17:53:33.469Z,3.85
2023-03-16T17:56:01.980Z,3.60
2023-03-16T17:58:32.454Z,3.67
2023-03-16T18:01:01.610Z,3.45
2023-03-16T18:03:30.936Z,3.50
2023-03-16T18:05:59.598Z,3.10
2023-03-16T18:08:33.419Z,4.10
2023-03-16T18:11:03.922Z,4.00
2023-03-16T18:13:35.068Z,3.63
2023-03-16T18:16:04.957Z,4.13
2023-03-16T18:18:37.594Z,3.42
2023-03-16T18:21:06.818Z,3.33
2023-03-16T18:23:38.160Z,3.38
2023-03-16T18:26:07.886Z,3.60
2023-03-16T18:28:36.692Z,3.85
2023-03-16T18:31:06.137Z,3.70
2023-03-16T18:33:36.985Z,3.22
2023-03-16T18:36:08.272Z,2.75
2023-03-16T18:38:40.220Z,2.78
2023-03-16T18:41:16.803Z,3.60
2023-03-16T18:43:45.721Z,3.40
2023-03-16T18:46:24.209Z,3.58
2023-03-16T18:48:54.318Z,3.20
2023-03-16T18:51:23.660Z,3.10
2023-03-16T18:53:53.688Z,3.10
2023-03-16T18:56:24.666Z,3.25
2023-03-16T18:58:53.957Z,2.80
2023-03-16T19:01:25.892Z,3.25
2023-03-16T19:03:55.010Z,2.85
2023-03-16T19:06:27.324Z,2.72
2023-03-16T19:09:03.779Z,3.28
2023-03-16T19:11:33.644Z,3.33
2023-03-16T19:14:02.245Z,3.63
2023-03-16T19:16:30.807Z,3.47
2023-03-16T19:18:59.377Z,3.83
2023-03-16T19:21:27.916Z,3.38
2023-03-16T19:24:02.980Z,3.58
2023-03-16T19:26:33.356Z,3.20
2023-03-16T19:29:02.459Z,3.35
2023-03-16T19:31:32.601Z,3.15
2023-03-16T19:34:01.214Z,3.35
2023-03-16T19:36:31.770Z,3.30
2023-03-16T19:39:01.727Z,3.28
2023-03-16T19:41:33.388Z,3.53
2023-03-16T19:44:08.315Z,3.55
2023-03-16T19:46:37.029Z,3.65
2023-03-16T19:49:09.948Z,3.63
2023-03-16T19:51:38.622Z,2.80
2023-03-16T19:54:08.812Z,3.25
2023-03-16T19:56:37.402Z,3.15
2023-03-16T19:59:05.900Z,3.13
2023-03-16T20:01:34.598Z,3.20
2023-03-16T20:04:04.304Z,3.60
2023-03-16T20:06:34.022Z,3.65
2023-03-16T20:09:02.718Z,3.53
2023-03-16T20:11:33.593Z,3.28
2023-03-16T20:14:03.574Z,3.45
2023-03-16T20:16:34.312Z,3.40
2023-03-16T20:19:10.977Z,3.45
2023-03-16T20:21:39.521Z,3.22
2023-03-16T20:24:15.224Z,3.33
2023-03-16T20:26:46.361Z,3.20
2023-03-16T20:29:21.966Z,3.05
2023-03-16T20:31:50.821Z,3.17
2023-03-16T20:34:23.383Z,2.85
2023-03-16T20:36:52.103Z,3.03
2023-03-16T20:39:20.964Z,3.30
2023-03-16T20:41:52.594Z,3.60
2023-03-16T20:44:23.621Z,3.03
2023-03-16T20:46:52.704Z,2.92
2023-03-16T20:49:34.068Z,3.20
2023-03-16T20:52:03.982Z,3.00
2023-03-16T20:54:32.899Z,3.17
2023-03-16T20:57:03.175Z,3.13
2023-03-16T20:59:32.789Z,3.22
2023-03-16T21:02:02.818Z,2.83
2023-03-16T21:04:31.692Z,3.10
2023-03-16T21:07:00.765Z,2.88
2023-03-16T21:09:31.871Z,2.92
2023-03-16T21:12:01.861Z,3.08
2023-03-16T21:14:30.355Z,3.15
2023-03-16T21:16:59.003Z,3.08
2023-03-16T21:19:27.625Z,3.03
2023-03-16T21:21:56.268Z,2.70
2023-03-16T21:24:24.813Z,3.17
2023-03-16T21:26:53.887Z,3.10
2023-03-16T21:29:24.201Z,3.22
2023-03-16T21:31:52.863Z,3.60
2023-03-16T21:34:27.215Z,3.35
2023-03-16T21:36:55.847Z,3.33
2023-03-16T21:39:25.238Z,3.03
2023-03-16T21:41:54.466Z,2.95
2023-03-16T21:44:24.440Z,2.95
2023-03-16T21:46:52.997Z,3.17
2023-03-16T21:49:21.709Z,3.33
2023-03-16T21:51:51.104Z,3.13
2023-03-16T21:54:20.196Z,3.55
2023-03-16T21:56:50.367Z,3.10
2023-03-16T21:59:19.138Z,3.20
2023-03-16T22:02:01.059Z,3.20
2023-03-16T22:04:30.708Z,3.05
2023-03-16T22:06:59.423Z,3.10
2023-03-16T22:09:30.115Z,3.15
2023-03-16T22:11:58.947Z,2.65
2023-03-16T22:14:28.065Z,3.13
2023-03-16T22:16:58.164Z,2.85
2023-03-16T22:19:28.099Z,2.72
2023-03-16T22:21:57.649Z,2.60
2023-03-16T22:24:28.439Z,2.75
2023-03-16T22:26:57.993Z,3.00
2023-03-16T22:29:28.629Z,3.35
2023-03-16T22:32:03.022Z,3.15
2023-03-16T22:34:34.095Z,2.95
2023-03-16T22:37:03.286Z,2.72
2023-03-16T22:39:36.033Z,2.83
2023-03-16T22:42:05.033Z,2.63
2023-03-16T22:44:33.570Z,2.80
2023-03-16T22:47:03.454Z,2.55
2023-03-16T22:49:32.009Z,3.30
2023-03-16T22:52:01.923Z,2.72
2023-03-16T22:54:30.863Z,2.88
2023-03-16T22:56:59.837Z,2.78
2023-03-16T22:59:28.699Z,2.58
2023-03-16T23:01:58.080Z,2.85
2023-03-16T23:04:32.288Z,2.78
2023-03-16T23:07:00.943Z,2.40
2023-03-16T23:09:29.731Z,2.80
2023-03-16T23:11:59.435Z,2.72
2023-03-16T23:14:31.587Z,2.97
2023-03-16T23:17:00.505Z,2.78
2023-03-16T23:19:32.764Z,2.65
2023-03-16T23:22:04.503Z,2.78
2023-03-16T23:24:33.195Z,2.83
2023-03-16T23:27:02.693Z,2.40
2023-03-16T23:29:32.164Z,2.40
2023-03-16T23:32:01.235Z,2.47
2023-03-16T23:34:31.300Z,2.42
2023-03-16T23:36:59.813Z,2.55
2023-03-16T23:39:28.804Z,2.60
2023-03-16T23:41:57.716Z,2.55
2023-03-16T23:44:29.431Z,2.60
2023-03-16T23:46:58.111Z,2.33
2023-03-16T23:49:30.086Z,2.13
2023-03-16T23:52:02.073Z,2.40
2023-03-16T23:54:32.633Z,2.30
2023-03-16T23:57:01.230Z,3.00
2023-03-16T23:59:29.725Z,2.38
